Summerdale, Alabama
Current Conditions -  °F | °C
As of 5:55 PM on Tuesday 25 Nov 2014 (Local Time) from KCQF Reporting Station
Overcast Overcast  
Wind Chill: 54°   Ceiling: 11000
Heat Index: 54°   Visibility: 10mi
Dew Point: 34°   Wind: 10mph
Humidity: 47%   Direction: 340°NNW
Pressure: 30.1"   Gusts: NA
Location:  30.49°N, 87.7°W
Report Text: KCQF 252355Z AUTO 34009KT 10SM OVC110 12/01 A3010 RMK AO2
Loading
Personal Weather Stations






























Interactive Weather Map New forecast layout! Learn more

10-Day Weather Forecast

Advertisements
Track Severe Weather on mobile